sensor_id;sensor_type;location;lat;lon;timestamp;P1;durP1;ratioP1;P2;durP2;ratioP2
5167;SDS011;2603;48.918;8.980;2023-05-02T00:00:14;9.43;;;5.83;;
5167;SDS011;2603;48.918;8.980;2023-05-02T00:02:41;8.20;;;5.80;;
5167;SDS011;2603;48.918;8.980;2023-05-02T00:05:09;6.90;;;5.80;;
5167;SDS011;2603;48.918;8.980;2023-05-02T00:07:36;11.10;;;6.53;;
5167;SDS011;2603;48.918;8.980;2023-05-02T00:10:04;9.80;;;5.80;;
5167;SDS011;2603;48.918;8.980;2023-05-02T00:12:32;6.47;;;5.17;;
5167;SDS011;2603;48.918;8.980;2023-05-02T00:14:58;7.37;;;5.80;;
5167;SDS011;2603;48.918;8.980;2023-05-02T00:17:25;7.40;;;6.10;;
5167;SDS011;2603;48.918;8.980;2023-05-02T00:19:52;8.20;;;4.53;;
5167;SDS011;2603;48.918;8.980;2023-05-02T00:22:22;7.97;;;5.30;;
5167;SDS011;2603;48.918;8.980;2023-05-02T00:24:48;7.17;;;5.77;;
5167;SDS011;2603;48.918;8.980;2023-05-02T00:27:15;7.13;;;5.47;;
5167;SDS011;2603;48.918;8.980;2023-05-02T00:29:43;8.40;;;6.30;;
5167;SDS011;2603;48.918;8.980;2023-05-02T00:32:11;7.97;;;5.83;;
5167;SDS011;2603;48.918;8.980;2023-05-02T00:34:38;7.53;;;5.67;;
5167;SDS011;2603;48.918;8.980;2023-05-02T00:37:05;13.90;;;6.63;;
5167;SDS011;2603;48.918;8.980;2023-05-02T00:39:34;9.23;;;6.17;;
5167;SDS011;2603;48.918;8.980;2023-05-02T00:42:01;6.93;;;5.70;;
5167;SDS011;2603;48.918;8.980;2023-05-02T00:44:28;8.13;;;5.90;;
5167;SDS011;2603;48.918;8.980;2023-05-02T00:46:56;7.23;;;5.67;;
5167;SDS011;2603;48.918;8.980;2023-05-02T00:49:23;8.67;;;5.67;;
5167;SDS011;2603;48.918;8.980;2023-05-02T00:51:51;5.67;;;4.90;;
5167;SDS011;2603;48.918;8.980;2023-05-02T00:54:18;9.03;;;5.70;;
5167;SDS011;2603;48.918;8.980;2023-05-02T00:56:46;9.77;;;6.60;;
5167;SDS011;2603;48.918;8.980;2023-05-02T00:59:13;8.00;;;5.77;;
5167;SDS011;2603;48.918;8.980;2023-05-02T01:01:44;9.60;;;6.23;;
5167;SDS011;2603;48.918;8.980;2023-05-02T01:04:21;9.03;;;6.00;;
5167;SDS011;2603;48.918;8.980;2023-05-02T01:06:57;13.77;;;5.70;;
5167;SDS011;2603;48.918;8.980;2023-05-02T01:09:38;10.67;;;6.40;;
5167;SDS011;2603;48.918;8.980;2023-05-02T01:12:13;8.20;;;5.50;;
5167;SDS011;2603;48.918;8.980;2023-05-02T01:14:42;9.70;;;5.87;;
5167;SDS011;2603;48.918;8.980;2023-05-02T01:17:12;7.60;;;5.87;;
5167;SDS011;2603;48.918;8.980;2023-05-02T01:19:40;8.40;;;6.63;;
5167;SDS011;2603;48.918;8.980;2023-05-02T01:22:10;6.20;;;4.90;;
5167;SDS011;2603;48.918;8.980;2023-05-02T01:24:37;10.43;;;6.57;;
5167;SDS011;2603;48.918;8.980;2023-05-02T01:27:13;7.50;;;5.90;;
5167;SDS011;2603;48.918;8.980;2023-05-02T01:29:43;8.30;;;5.57;;
5167;SDS011;2603;48.918;8.980;2023-05-02T01:32:11;9.67;;;6.40;;
5167;SDS011;2603;48.918;8.980;2023-05-02T01:34:39;9.10;;;5.87;;
5167;SDS011;2603;48.918;8.980;2023-05-02T01:37:06;7.17;;;5.80;;
5167;SDS011;2603;48.918;8.980;2023-05-02T01:39:34;16.40;;;6.00;;
5167;SDS011;2603;48.918;8.980;2023-05-02T01:42:01;8.83;;;5.80;;
5167;SDS011;2603;48.918;8.980;2023-05-02T01:44:29;10.47;;;7.07;;
5167;SDS011;2603;48.918;8.980;2023-05-02T01:46:57;9.30;;;6.50;;
5167;SDS011;2603;48.918;8.980;2023-05-02T01:49:25;8.97;;;7.20;;
5167;SDS011;2603;48.918;8.980;2023-05-02T01:51:52;11.10;;;6.20;;
5167;SDS011;2603;48.918;8.980;2023-05-02T01:54:19;8.00;;;6.33;;
5167;SDS011;2603;48.918;8.980;2023-05-02T01:56:46;10.73;;;7.20;;
5167;SDS011;2603;48.918;8.980;2023-05-02T01:59:14;11.30;;;6.70;;
5167;SDS011;2603;48.918;8.980;2023-05-02T02:01:45;8.93;;;6.33;;
5167;SDS011;2603;48.918;8.980;2023-05-02T02:04:13;11.67;;;7.00;;
5167;SDS011;2603;48.918;8.980;2023-05-02T02:06:40;8.63;;;6.23;;
5167;SDS011;2603;48.918;8.980;2023-05-02T02:09:10;10.47;;;6.53;;
5167;SDS011;2603;48.918;8.980;2023-05-02T02:11:41;10.20;;;7.50;;
5167;SDS011;2603;48.918;8.980;2023-05-02T02:14:11;8.63;;;6.50;;
5167;SDS011;2603;48.918;8.980;2023-05-02T02:16:42;8.70;;;6.90;;
5167;SDS011;2603;48.918;8.980;2023-05-02T02:19:09;9.37;;;6.50;;
5167;SDS011;2603;48.918;8.980;2023-05-02T02:21:41;8.60;;;6.40;;
5167;SDS011;2603;48.918;8.980;2023-05-02T02:24:08;10.93;;;6.30;;
5167;SDS011;2603;48.918;8.980;2023-05-02T02:26:35;8.43;;;5.77;;
5167;SDS011;2603;48.918;8.980;2023-05-02T02:29:02;7.70;;;6.00;;
5167;SDS011;2603;48.918;8.980;2023-05-02T02:31:29;8.40;;;6.80;;
5167;SDS011;2603;48.918;8.980;2023-05-02T02:33:56;11.03;;;6.23;;
5167;SDS011;2603;48.918;8.980;2023-05-02T02:36:26;6.80;;;5.47;;
5167;SDS011;2603;48.918;8.980;2023-05-02T02:38:57;7.53;;;5.87;;
5167;SDS011;2603;48.918;8.980;2023-05-02T02:41:31;7.90;;;5.70;;
5167;SDS011;2603;48.918;8.980;2023-05-02T02:44:03;10.50;;;6.67;;
5167;SDS011;2603;48.918;8.980;2023-05-02T02:46:33;8.43;;;6.50;;
5167;SDS011;2603;48.918;8.980;2023-05-02T02:49:12;8.40;;;5.67;;
5167;SDS011;2603;48.918;8.980;2023-05-02T02:51:45;12.90;;;6.93;;
5167;SDS011;2603;48.918;8.980;2023-05-02T02:54:20;10.80;;;7.33;;
5167;SDS011;2603;48.918;8.980;2023-05-02T02:56:57;8.67;;;6.53;;
5167;SDS011;2603;48.918;8.980;2023-05-02T02:59:28;9.80;;;6.80;;
5167;SDS011;2603;48.918;8.980;2023-05-02T03:01:59;8.53;;;6.10;;
5167;SDS011;2603;48.918;8.980;2023-05-02T03:04:29;9.43;;;7.40;;
5167;SDS011;2603;48.918;8.980;2023-05-02T03:06:58;8.40;;;6.70;;
5167;SDS011;2603;48.918;8.980;2023-05-02T03:09:28;9.50;;;7.00;;
5167;SDS011;2603;48.918;8.980;2023-05-02T03:12:07;11.40;;;7.90;;
5167;SDS011;2603;48.918;8.980;2023-05-02T03:14:36;9.00;;;6.17;;
5167;SDS011;2603;48.918;8.980;2023-05-02T03:17:03;8.60;;;6.20;;
5167;SDS011;2603;48.918;8.980;2023-05-02T03:19:32;10.47;;;6.80;;
5167;SDS011;2603;48.918;8.980;2023-05-02T03:22:01;10.37;;;6.50;;
5167;SDS011;2603;48.918;8.980;2023-05-02T03:24:28;11.20;;;6.53;;
5167;SDS011;2603;48.918;8.980;2023-05-02T03:26:56;11.60;;;7.37;;
5167;SDS011;2603;48.918;8.980;2023-05-02T03:29:27;9.23;;;6.90;;
5167;SDS011;2603;48.918;8.980;2023-05-02T03:31:53;9.70;;;6.70;;
5167;SDS011;2603;48.918;8.980;2023-05-02T03:34:21;9.53;;;7.37;;
5167;SDS011;2603;48.918;8.980;2023-05-02T03:36:50;8.93;;;6.70;;
5167;SDS011;2603;48.918;8.980;2023-05-02T03:39:18;8.90;;;6.30;;
5167;SDS011;2603;48.918;8.980;2023-05-02T03:41:44;7.80;;;5.93;;
5167;SDS011;2603;48.918;8.980;2023-05-02T03:44:15;12.90;;;7.13;;
5167;SDS011;2603;48.918;8.980;2023-05-02T03:46:42;12.80;;;6.80;;
5167;SDS011;2603;48.918;8.980;2023-05-02T03:49:10;9.47;;;6.23;;
5167;SDS011;2603;48.918;8.980;2023-05-02T03:51:40;9.20;;;6.80;;
5167;SDS011;2603;48.918;8.980;2023-05-02T03:54:07;10.23;;;6.77;;
5167;SDS011;2603;48.918;8.980;2023-05-02T03:56:40;13.53;;;6.57;;
5167;SDS011;2603;48.918;8.980;2023-05-02T03:59:17;11.77;;;6.47;;
5167;SDS011;2603;48.918;8.980;2023-05-02T04:01:44;12.30;;;6.43;;
5167;SDS011;2603;48.918;8.980;2023-05-02T04:04:12;8.70;;;6.70;;
5167;SDS011;2603;48.918;8.980;2023-05-02T04:06:45;8.90;;;6.70;;
5167;SDS011;2603;48.918;8.980;2023-05-02T04:09:13;11.10;;;6.33;;
5167;SDS011;2603;48.918;8.980;2023-05-02T04:11:50;7.57;;;5.83;;
5167;SDS011;2603;48.918;8.980;2023-05-02T04:14:17;10.03;;;6.13;;
5167;SDS011;2603;48.918;8.980;2023-05-02T04:16:46;8.40;;;5.70;;
5167;SDS011;2603;48.918;8.980;2023-05-02T04:19:15;8.13;;;6.07;;
5167;SDS011;2603;48.918;8.980;2023-05-02T04:21:43;7.73;;;5.90;;
5167;SDS011;2603;48.918;8.980;2023-05-02T04:24:12;15.07;;;6.23;;
5167;SDS011;2603;48.918;8.980;2023-05-02T04:26:39;10.87;;;6.70;;
5167;SDS011;2603;48.918;8.980;2023-05-02T04:29:10;8.30;;;6.73;;
5167;SDS011;2603;48.918;8.980;2023-05-02T04:31:38;8.70;;;6.50;;
5167;SDS011;2603;48.918;8.980;2023-05-02T04:34:04;6.47;;;5.53;;
5167;SDS011;2603;48.918;8.980;2023-05-02T04:36:37;15.13;;;6.70;;
5167;SDS011;2603;48.918;8.980;2023-05-02T04:39:05;9.20;;;6.50;;
5167;SDS011;2603;48.918;8.980;2023-05-02T04:41:35;14.50;;;8.93;;
5167;SDS011;2603;48.918;8.980;2023-05-02T04:44:04;11.60;;;8.57;;
5167;SDS011;2603;48.918;8.980;2023-05-02T04:46:33;11.47;;;8.97;;
5167;SDS011;2603;48.918;8.980;2023-05-02T04:49:00;10.83;;;8.80;;
5167;SDS011;2603;48.918;8.980;2023-05-02T04:51:26;10.23;;;8.17;;
5167;SDS011;2603;48.918;8.980;2023-05-02T04:53:54;13.93;;;9.60;;
5167;SDS011;2603;48.918;8.980;2023-05-02T04:56:20;14.47;;;9.67;;
5167;SDS011;2603;48.918;8.980;2023-05-02T04:58:48;12.70;;;9.30;;
5167;SDS011;2603;48.918;8.980;2023-05-02T05:01:15;12.20;;;7.93;;
5167;SDS011;2603;48.918;8.980;2023-05-02T05:03:44;9.10;;;6.77;;
5167;SDS011;2603;48.918;8.980;2023-05-02T05:06:11;10.57;;;7.27;;
5167;SDS011;2603;48.918;8.980;2023-05-02T05:08:37;9.40;;;7.03;;
5167;SDS011;2603;48.918;8.980;2023-05-02T05:11:04;9.83;;;6.73;;
5167;SDS011;2603;48.918;8.980;2023-05-02T05:13:31;11.80;;;7.33;;
5167;SDS011;2603;48.918;8.980;2023-05-02T05:15:58;13.03;;;9.60;;
5167;SDS011;2603;48.918;8.980;2023-05-02T05:18:28;12.50;;;7.17;;
5167;SDS011;2603;48.918;8.980;2023-05-02T05:20:57;8.73;;;7.20;;
5167;SDS011;2603;48.918;8.980;2023-05-02T05:23:23;10.53;;;6.80;;
5167;SDS011;2603;48.918;8.980;2023-05-02T05:25:50;10.23;;;6.83;;
5167;SDS011;2603;48.918;8.980;2023-05-02T05:28:17;14.43;;;7.23;;
5167;SDS011;2603;48.918;8.980;2023-05-02T05:30:44;9.40;;;6.30;;
5167;SDS011;2603;48.918;8.980;2023-05-02T05:33:13;12.80;;;7.20;;
5167;SDS011;2603;48.918;8.980;2023-05-02T05:35:41;10.27;;;6.70;;
5167;SDS011;2603;48.918;8.980;2023-05-02T05:38:09;10.40;;;7.17;;
5167;SDS011;2603;48.918;8.980;2023-05-02T05:40:37;8.30;;;6.47;;
5167;SDS011;2603;48.918;8.980;2023-05-02T05:43:06;8.67;;;6.83;;
5167;SDS011;2603;48.918;8.980;2023-05-02T05:45:36;8.50;;;6.73;;
5167;SDS011;2603;48.918;8.980;2023-05-02T05:48:03;9.37;;;7.20;;
5167;SDS011;2603;48.918;8.980;2023-05-02T05:50:35;11.07;;;6.83;;
5167;SDS011;2603;48.918;8.980;2023-05-02T05:53:02;7.47;;;5.80;;
5167;SDS011;2603;48.918;8.980;2023-05-02T05:55:30;7.63;;;6.33;;
5167;SDS011;2603;48.918;8.980;2023-05-02T05:57:58;8.13;;;5.63;;
5167;SDS011;2603;48.918;8.980;2023-05-02T06:00:25;12.03;;;7.10;;
5167;SDS011;2603;48.918;8.980;2023-05-02T06:02:52;9.97;;;6.60;;
5167;SDS011;2603;48.918;8.980;2023-05-02T06:05:28;11.63;;;7.43;;
5167;SDS011;2603;48.918;8.980;2023-05-02T06:07:55;11.20;;;6.73;;
5167;SDS011;2603;48.918;8.980;2023-05-02T06:10:21;11.23;;;7.37;;
5167;SDS011;2603;48.918;8.980;2023-05-02T06:12:50;10.40;;;8.10;;
5167;SDS011;2603;48.918;8.980;2023-05-02T06:15:21;14.87;;;8.10;;
5167;SDS011;2603;48.918;8.980;2023-05-02T06:17:49;12.03;;;8.17;;
5167;SDS011;2603;48.918;8.980;2023-05-02T06:20:15;14.70;;;9.50;;
5167;SDS011;2603;48.918;8.980;2023-05-02T06:22:42;11.73;;;9.00;;
5167;SDS011;2603;48.918;8.980;2023-05-02T06:25:09;12.47;;;9.67;;
5167;SDS011;2603;48.918;8.980;2023-05-02T06:27:35;15.10;;;9.80;;
5167;SDS011;2603;48.918;8.980;2023-05-02T06:30:03;13.30;;;9.63;;
5167;SDS011;2603;48.918;8.980;2023-05-02T06:32:31;16.80;;;9.97;;
5167;SDS011;2603;48.918;8.980;2023-05-02T06:34:58;13.50;;;9.90;;
5167;SDS011;2603;48.918;8.980;2023-05-02T06:37:24;14.73;;;10.60;;
5167;SDS011;2603;48.918;8.980;2023-05-02T06:39:51;16.47;;;11.30;;
5167;SDS011;2603;48.918;8.980;2023-05-02T06:42:17;16.03;;;11.03;;
5167;SDS011;2603;48.918;8.980;2023-05-02T06:44:44;14.80;;;10.70;;
5167;SDS011;2603;48.918;8.980;2023-05-02T06:47:12;17.60;;;12.30;;
5167;SDS011;2603;48.918;8.980;2023-05-02T06:49:38;17.97;;;12.73;;
5167;SDS011;2603;48.918;8.980;2023-05-02T06:52:05;19.37;;;12.70;;
5167;SDS011;2603;48.918;8.980;2023-05-02T06:54:31;15.03;;;10.93;;
5167;SDS011;2603;48.918;8.980;2023-05-02T06:56:58;22.60;;;13.13;;
5167;SDS011;2603;48.918;8.980;2023-05-02T06:59:25;18.33;;;11.93;;
5167;SDS011;2603;48.918;8.980;2023-05-02T07:01:51;23.00;;;13.73;;
5167;SDS011;2603;48.918;8.980;2023-05-02T07:04:19;17.47;;;12.03;;
5167;SDS011;2603;48.918;8.980;2023-05-02T07:06:45;16.43;;;11.80;;
5167;SDS011;2603;48.918;8.980;2023-05-02T07:09:12;24.30;;;14.23;;
5167;SDS011;2603;48.918;8.980;2023-05-02T07:11:38;17.90;;;12.80;;
5167;SDS011;2603;48.918;8.980;2023-05-02T07:14:05;19.10;;;14.27;;
5167;SDS011;2603;48.918;8.980;2023-05-02T07:16:32;21.57;;;15.30;;
5167;SDS011;2603;48.918;8.980;2023-05-02T07:18:59;21.70;;;15.00;;
5167;SDS011;2603;48.918;8.980;2023-05-02T07:21:27;25.13;;;15.97;;
5167;SDS011;2603;48.918;8.980;2023-05-02T07:23:53;25.70;;;14.23;;
5167;SDS011;2603;48.918;8.980;2023-05-02T07:26:21;27.77;;;14.93;;
5167;SDS011;2603;48.918;8.980;2023-05-02T07:28:49;24.10;;;15.73;;
5167;SDS011;2603;48.918;8.980;2023-05-02T07:31:15;21.07;;;16.00;;
5167;SDS011;2603;48.918;8.980;2023-05-02T07:33:42;29.90;;;17.67;;
5167;SDS011;2603;48.918;8.980;2023-05-02T07:36:08;30.33;;;20.10;;
5167;SDS011;2603;48.918;8.980;2023-05-02T07:38:37;26.03;;;17.80;;
5167;SDS011;2603;48.918;8.980;2023-05-02T07:41:03;25.30;;;19.03;;
5167;SDS011;2603;48.918;8.980;2023-05-02T07:43:30;26.47;;;18.13;;
5167;SDS011;2603;48.918;8.980;2023-05-02T07:45:56;30.70;;;17.23;;
5167;SDS011;2603;48.918;8.980;2023-05-02T07:48:23;31.83;;;19.20;;
5167;SDS011;2603;48.918;8.980;2023-05-02T07:50:49;25.30;;;17.37;;
5167;SDS011;2603;48.918;8.980;2023-05-02T07:53:16;30.30;;;19.07;;
5167;SDS011;2603;48.918;8.980;2023-05-02T07:55:44;27.73;;;18.87;;
5167;SDS011;2603;48.918;8.980;2023-05-02T07:58:10;29.37;;;18.40;;
5167;SDS011;2603;48.918;8.980;2023-05-02T08:00:37;23.37;;;18.20;;
5167;SDS011;2603;48.918;8.980;2023-05-02T08:03:03;29.67;;;21.53;;
5167;SDS011;2603;48.918;8.980;2023-05-02T08:05:30;27.57;;;18.83;;
5167;SDS011;2603;48.918;8.980;2023-05-02T08:07:57;27.13;;;19.90;;
5167;SDS011;2603;48.918;8.980;2023-05-02T08:10:25;28.53;;;19.83;;
5167;SDS011;2603;48.918;8.980;2023-05-02T08:12:53;27.43;;;19.50;;
5167;SDS011;2603;48.918;8.980;2023-05-02T08:15:20;25.77;;;19.07;;
5167;SDS011;2603;48.918;8.980;2023-05-02T08:17:47;25.13;;;19.80;;
5167;SDS011;2603;48.918;8.980;2023-05-02T08:20:13;28.90;;;21.10;;
5167;SDS011;2603;48.918;8.980;2023-05-02T08:22:40;30.47;;;18.90;;
5167;SDS011;2603;48.918;8.980;2023-05-02T08:25:07;28.10;;;19.60;;
5167;SDS011;2603;48.918;8.980;2023-05-02T08:27:34;26.30;;;19.47;;
5167;SDS011;2603;48.918;8.980;2023-05-02T08:30:02;32.57;;;18.87;;
5167;SDS011;2603;48.918;8.980;2023-05-02T08:32:30;26.23;;;18.67;;
5167;SDS011;2603;48.918;8.980;2023-05-02T08:34:57;24.73;;;18.37;;
5167;SDS011;2603;48.918;8.980;2023-05-02T08:37:23;26.77;;;18.73;;
5167;SDS011;2603;48.918;8.980;2023-05-02T08:39:50;24.77;;;18.27;;
5167;SDS011;2603;48.918;8.980;2023-05-02T08:42:16;33.70;;;20.93;;
5167;SDS011;2603;48.918;8.980;2023-05-02T08:44:44;31.50;;;20.57;;
5167;SDS011;2603;48.918;8.980;2023-05-02T08:47:13;26.80;;;20.40;;
5167;SDS011;2603;48.918;8.980;2023-05-02T08:49:41;27.80;;;21.00;;
5167;SDS011;2603;48.918;8.980;2023-05-02T08:52:08;36.60;;;20.17;;
5167;SDS011;2603;48.918;8.980;2023-05-02T08:54:36;26.80;;;20.63;;
5167;SDS011;2603;48.918;8.980;2023-05-02T08:57:03;29.70;;;20.50;;
5167;SDS011;2603;48.918;8.980;2023-05-02T08:59:31;29.10;;;18.90;;
5167;SDS011;2603;48.918;8.980;2023-05-02T09:01:58;28.10;;;19.80;;
5167;SDS011;2603;48.918;8.980;2023-05-02T09:04:29;27.30;;;17.60;;
5167;SDS011;2603;48.918;8.980;2023-05-02T09:06:56;24.23;;;18.90;;
5167;SDS011;2603;48.918;8.980;2023-05-02T09:09:23;25.20;;;17.07;;
5167;SDS011;2603;48.918;8.980;2023-05-02T09:11:50;25.53;;;17.93;;
5167;SDS011;2603;48.918;8.980;2023-05-02T09:14:17;25.37;;;17.90;;
5167;SDS011;2603;48.918;8.980;2023-05-02T09:16:44;28.50;;;18.47;;
5167;SDS011;2603;48.918;8.980;2023-05-02T09:19:11;25.97;;;16.90;;
5167;SDS011;2603;48.918;8.980;2023-05-02T09:21:50;27.70;;;19.67;;
5167;SDS011;2603;48.918;8.980;2023-05-02T09:24:17;22.10;;;17.30;;
5167;SDS011;2603;48.918;8.980;2023-05-02T09:26:55;26.57;;;18.77;;
5167;SDS011;2603;48.918;8.980;2023-05-02T09:29:22;23.97;;;16.97;;
5167;SDS011;2603;48.918;8.980;2023-05-02T09:31:49;28.53;;;16.23;;
5167;SDS011;2603;48.918;8.980;2023-05-02T09:34:15;27.40;;;18.23;;
5167;SDS011;2603;48.918;8.980;2023-05-02T09:36:43;23.70;;;16.23;;
5167;SDS011;2603;48.918;8.980;2023-05-02T09:39:12;24.60;;;17.20;;
5167;SDS011;2603;48.918;8.980;2023-05-02T09:41:40;22.17;;;14.87;;
5167;SDS011;2603;48.918;8.980;2023-05-02T09:44:08;23.80;;;16.43;;
5167;SDS011;2603;48.918;8.980;2023-05-02T09:46:38;18.97;;;14.97;;
5167;SDS011;2603;48.918;8.980;2023-05-02T09:49:05;19.10;;;13.70;;
5167;SDS011;2603;48.918;8.980;2023-05-02T09:51:31;20.80;;;14.60;;
5167;SDS011;2603;48.918;8.980;2023-05-02T09:53:58;24.30;;;13.80;;
5167;SDS011;2603;48.918;8.980;2023-05-02T09:56:26;19.93;;;12.60;;
5167;SDS011;2603;48.918;8.980;2023-05-02T09:59:01;19.03;;;13.00;;
5167;SDS011;2603;48.918;8.980;2023-05-02T10:01:38;19.33;;;14.83;;
5167;SDS011;2603;48.918;8.980;2023-05-02T10:04:06;26.60;;;17.30;;
5167;SDS011;2603;48.918;8.980;2023-05-02T10:06:35;22.23;;;16.60;;
5167;SDS011;2603;48.918;8.980;2023-05-02T10:09:02;23.33;;;16.80;;
5167;SDS011;2603;48.918;8.980;2023-05-02T10:11:30;25.20;;;17.13;;
5167;SDS011;2603;48.918;8.980;2023-05-02T10:13:57;22.20;;;16.23;;
5167;SDS011;2603;48.918;8.980;2023-05-02T10:16:26;21.43;;;16.60;;
5167;SDS011;2603;48.918;8.980;2023-05-02T10:18:57;23.47;;;16.17;;
5167;SDS011;2603;48.918;8.980;2023-05-02T10:21:28;23.00;;;15.53;;
5167;SDS011;2603;48.918;8.980;2023-05-02T10:23:57;21.77;;;15.67;;
5167;SDS011;2603;48.918;8.980;2023-05-02T10:26:27;22.43;;;17.40;;
5167;SDS011;2603;48.918;8.980;2023-05-02T10:28:56;25.60;;;17.10;;
5167;SDS011;2603;48.918;8.980;2023-05-02T10:31:22;22.57;;;16.30;;
5167;SDS011;2603;48.918;8.980;2023-05-02T10:33:49;29.33;;;17.60;;
5167;SDS011;2603;48.918;8.980;2023-05-02T10:36:19;23.10;;;17.53;;
5167;SDS011;2603;48.918;8.980;2023-05-02T10:38:47;27.70;;;18.60;;
5167;SDS011;2603;48.918;8.980;2023-05-02T10:41:14;25.60;;;18.10;;
5167;SDS011;2603;48.918;8.980;2023-05-02T10:43:44;26.37;;;19.03;;
5167;SDS011;2603;48.918;8.980;2023-05-02T10:46:30;26.77;;;18.53;;
5167;SDS011;2603;48.918;8.980;2023-05-02T10:49:01;22.20;;;17.10;;
5167;SDS011;2603;48.918;8.980;2023-05-02T10:51:29;24.60;;;18.63;;
5167;SDS011;2603;48.918;8.980;2023-05-02T10:59:32;50.90;;;20.83;;
5167;SDS011;2603;48.918;8.980;2023-05-02T11:02:01;25.37;;;17.17;;
5167;SDS011;2603;48.918;8.980;2023-05-02T11:04:57;26.30;;;19.67;;
5167;SDS011;2603;48.918;8.980;2023-05-02T11:07:24;23.67;;;17.63;;
5167;SDS011;2603;48.918;8.980;2023-05-02T11:09:51;25.70;;;17.93;;
5167;SDS011;2603;48.918;8.980;2023-05-02T11:15:10;25.53;;;17.70;;
5167;SDS011;2603;48.918;8.980;2023-05-02T11:20:26;25.07;;;16.27;;
5167;SDS011;2603;48.918;8.980;2023-05-02T11:22:53;24.13;;;17.47;;
5167;SDS011;2603;48.918;8.980;2023-05-02T11:25:27;19.00;;;16.20;;
5167;SDS011;2603;48.918;8.980;2023-05-02T11:27:58;24.07;;;16.23;;
5167;SDS011;2603;48.918;8.980;2023-05-02T11:30:40;19.03;;;14.10;;
5167;SDS011;2603;48.918;8.980;2023-05-02T11:33:17;21.17;;;12.47;;
5167;SDS011;2603;48.918;8.980;2023-05-02T11:35:44;15.33;;;11.57;;
5167;SDS011;2603;48.918;8.980;2023-05-02T11:38:19;23.93;;;14.80;;
5167;SDS011;2603;48.918;8.980;2023-05-02T11:40:53;29.03;;;17.23;;
5167;SDS011;2603;48.918;8.980;2023-05-02T11:43:22;29.40;;;20.27;;
5167;SDS011;2603;48.918;8.980;2023-05-02T11:45:50;27.13;;;20.20;;
5167;SDS011;2603;48.918;8.980;2023-05-02T11:48:18;25.70;;;18.70;;
5167;SDS011;2603;48.918;8.980;2023-05-02T11:50:47;30.33;;;18.50;;
5167;SDS011;2603;48.918;8.980;2023-05-02T11:53:15;29.70;;;19.00;;
5167;SDS011;2603;48.918;8.980;2023-05-02T11:55:43;27.30;;;18.73;;
5167;SDS011;2603;48.918;8.980;2023-05-02T11:58:12;32.50;;;20.83;;
5167;SDS011;2603;48.918;8.980;2023-05-02T12:00:39;27.90;;;18.37;;
5167;SDS011;2603;48.918;8.980;2023-05-02T12:03:06;26.67;;;17.87;;
5167;SDS011;2603;48.918;8.980;2023-05-02T12:05:34;27.60;;;18.03;;
5167;SDS011;2603;48.918;8.980;2023-05-02T12:08:00;30.30;;;17.03;;
5167;SDS011;2603;48.918;8.980;2023-05-02T12:10:36;21.67;;;15.83;;
5167;SDS011;2603;48.918;8.980;2023-05-02T12:13:03;26.90;;;17.70;;
5167;SDS011;2603;48.918;8.980;2023-05-02T12:15:30;28.50;;;19.13;;
5167;SDS011;2603;48.918;8.980;2023-05-02T12:17:57;25.57;;;17.13;;
5167;SDS011;2603;48.918;8.980;2023-05-02T12:20:24;22.90;;;15.50;;
5167;SDS011;2603;48.918;8.980;2023-05-02T12:22:52;26.23;;;16.60;;
5167;SDS011;2603;48.918;8.980;2023-05-02T12:25:19;17.80;;;12.57;;
5167;SDS011;2603;48.918;8.980;2023-05-02T12:27:57;18.73;;;13.70;;
5167;SDS011;2603;48.918;8.980;2023-05-02T12:30:24;21.97;;;14.00;;
5167;SDS011;2603;48.918;8.980;2023-05-02T12:32:54;20.67;;;14.67;;
5167;SDS011;2603;48.918;8.980;2023-05-02T12:35:22;22.17;;;14.23;;
5167;SDS011;2603;48.918;8.980;2023-05-02T12:37:49;20.50;;;13.43;;
5167;SDS011;2603;48.918;8.980;2023-05-02T12:40:17;19.20;;;14.87;;
5167;SDS011;2603;48.918;8.980;2023-05-02T12:42:56;19.90;;;13.80;;
5167;SDS011;2603;48.918;8.980;2023-05-02T12:45:23;18.93;;;14.43;;
5167;SDS011;2603;48.918;8.980;2023-05-02T12:47:53;17.63;;;13.10;;
5167;SDS011;2603;48.918;8.980;2023-05-02T12:50:19;18.13;;;12.70;;
5167;SDS011;2603;48.918;8.980;2023-05-02T12:52:46;17.17;;;12.47;;
5167;SDS011;2603;48.918;8.980;2023-05-02T12:55:14;19.20;;;13.30;;
5167;SDS011;2603;48.918;8.980;2023-05-02T12:57:42;15.20;;;11.70;;
5167;SDS011;2603;48.918;8.980;2023-05-02T13:00:09;20.87;;;13.50;;
5167;SDS011;2603;48.918;8.980;2023-05-02T13:02:36;18.37;;;12.97;;
5167;SDS011;2603;48.918;8.980;2023-05-02T13:05:12;18.80;;;12.90;;
5167;SDS011;2603;48.918;8.980;2023-05-02T13:07:39;17.00;;;11.67;;
5167;SDS011;2603;48.918;8.980;2023-05-02T13:10:06;18.83;;;12.30;;
5167;SDS011;2603;48.918;8.980;2023-05-02T13:12:34;18.87;;;11.37;;
5167;SDS011;2603;48.918;8.980;2023-05-02T13:15:02;17.77;;;11.00;;
5167;SDS011;2603;48.918;8.980;2023-05-02T13:17:29;17.63;;;12.37;;
5167;SDS011;2603;48.918;8.980;2023-05-02T13:19:55;16.30;;;11.40;;
5167;SDS011;2603;48.918;8.980;2023-05-02T13:22:22;18.17;;;11.47;;
5167;SDS011;2603;48.918;8.980;2023-05-02T13:24:49;16.70;;;10.40;;
5167;SDS011;2603;48.918;8.980;2023-05-02T13:27:16;15.93;;;11.80;;
5167;SDS011;2603;48.918;8.980;2023-05-02T13:29:44;18.40;;;12.50;;
5167;SDS011;2603;48.918;8.980;2023-05-02T13:32:10;14.93;;;11.10;;
5167;SDS011;2603;48.918;8.980;2023-05-02T13:34:37;14.33;;;10.50;;
5167;SDS011;2603;48.918;8.980;2023-05-02T13:37:03;16.93;;;10.50;;
5167;SDS011;2603;48.918;8.980;2023-05-02T13:39:30;15.27;;;10.70;;
5167;SDS011;2603;48.918;8.980;2023-05-02T13:41:58;15.60;;;10.83;;
5167;SDS011;2603;48.918;8.980;2023-05-02T13:44:26;17.17;;;11.63;;
5167;SDS011;2603;48.918;8.980;2023-05-02T13:46:54;14.50;;;10.10;;
5167;SDS011;2603;48.918;8.980;2023-05-02T13:49:21;14.43;;;9.70;;
5167;SDS011;2603;48.918;8.980;2023-05-02T13:51:47;12.20;;;8.20;;
5167;SDS011;2603;48.918;8.980;2023-05-02T13:54:14;20.27;;;9.30;;
5167;SDS011;2603;48.918;8.980;2023-05-02T13:56:40;15.97;;;10.33;;
5167;SDS011;2603;48.918;8.980;2023-05-02T13:59:07;14.90;;;9.70;;
5167;SDS011;2603;48.918;8.980;2023-05-02T14:01:35;20.10;;;9.73;;
5167;SDS011;2603;48.918;8.980;2023-05-02T14:04:05;17.57;;;10.63;;
5167;SDS011;2603;48.918;8.980;2023-05-02T14:06:32;11.90;;;8.77;;
5167;SDS011;2603;48.918;8.980;2023-05-02T14:08:59;13.67;;;9.40;;
5167;SDS011;2603;48.918;8.980;2023-05-02T14:11:26;15.70;;;10.77;;
5167;SDS011;2603;48.918;8.980;2023-05-02T14:13:52;15.57;;;11.30;;
5167;SDS011;2603;48.918;8.980;2023-05-02T14:16:21;27.77;;;11.60;;
5167;SDS011;2603;48.918;8.980;2023-05-02T14:18:48;14.40;;;10.20;;
5167;SDS011;2603;48.918;8.980;2023-05-02T14:21:16;15.20;;;9.93;;
5167;SDS011;2603;48.918;8.980;2023-05-02T14:23:42;16.57;;;11.07;;
5167;SDS011;2603;48.918;8.980;2023-05-02T14:26:09;15.57;;;9.67;;
5167;SDS011;2603;48.918;8.980;2023-05-02T14:28:36;11.93;;;8.43;;
5167;SDS011;2603;48.918;8.980;2023-05-02T14:31:03;12.87;;;8.13;;
5167;SDS011;2603;48.918;8.980;2023-05-02T14:33:30;16.57;;;9.53;;
5167;SDS011;2603;48.918;8.980;2023-05-02T14:35:56;12.50;;;6.90;;
5167;SDS011;2603;48.918;8.980;2023-05-02T14:38:24;12.17;;;7.23;;
5167;SDS011;2603;48.918;8.980;2023-05-02T14:40:51;13.30;;;8.37;;
5167;SDS011;2603;48.918;8.980;2023-05-02T14:43:17;13.47;;;7.67;;
5167;SDS011;2603;48.918;8.980;2023-05-02T14:45:44;10.80;;;6.20;;
5167;SDS011;2603;48.918;8.980;2023-05-02T14:48:10;11.43;;;6.57;;
5167;SDS011;2603;48.918;8.980;2023-05-02T14:50:38;8.70;;;5.83;;
5167;SDS011;2603;48.918;8.980;2023-05-02T14:53:05;11.97;;;6.23;;
5167;SDS011;2603;48.918;8.980;2023-05-02T14:55:35;7.57;;;4.30;;
5167;SDS011;2603;48.918;8.980;2023-05-02T14:58:03;6.87;;;4.10;;
5167;SDS011;2603;48.918;8.980;2023-05-02T15:00:31;6.13;;;4.00;;
5167;SDS011;2603;48.918;8.980;2023-05-02T15:02:58;8.50;;;4.90;;
5167;SDS011;2603;48.918;8.980;2023-05-02T15:05:25;8.40;;;4.23;;
5167;SDS011;2603;48.918;8.980;2023-05-02T15:07:52;6.00;;;3.00;;
5167;SDS011;2603;48.918;8.980;2023-05-02T15:10:18;5.37;;;2.90;;
5167;SDS011;2603;48.918;8.980;2023-05-02T15:12:46;6.90;;;3.60;;
5167;SDS011;2603;48.918;8.980;2023-05-02T15:15:15;6.80;;;3.47;;